createdAt,value
2023-03-27T00:02:32.735Z,15.95
2023-03-27T00:05:35.281Z,15.93
2023-03-27T00:08:38.405Z,15.87
2023-03-27T00:11:40.613Z,15.92
2023-03-27T00:14:42.766Z,15.91
2023-03-27T00:17:50.100Z,15.90
2023-03-27T00:20:52.464Z,15.85
2023-03-27T00:23:56.013Z,15.88
2023-03-27T00:26:58.214Z,15.81
2023-03-27T00:30:00.446Z,15.87
2023-03-27T00:33:02.828Z,15.85
2023-03-27T00:36:06.108Z,15.82
2023-03-27T00:39:08.428Z,15.82
2023-03-27T00:42:17.351Z,15.83
2023-03-27T00:45:25.024Z,15.74
2023-03-27T00:48:28.442Z,15.70
2023-03-27T00:51:31.223Z,15.72
2023-03-27T00:54:36.657Z,15.62
2023-03-27T00:57:40.075Z,15.60
2023-03-27T01:00:42.327Z,15.62
2023-03-27T01:03:47.170Z,15.69
2023-03-27T01:06:51.933Z,15.62
2023-03-27T01:09:54.813Z,15.67
2023-03-27T01:13:11.382Z,15.67
2023-03-27T01:16:25.957Z,15.58
2023-03-27T01:20:20.303Z,15.64
2023-03-27T01:24:00.588Z,15.62
2023-03-27T01:27:10.691Z,15.52
2023-03-27T01:30:18.935Z,15.42
2023-03-27T01:33:46.334Z,15.52
2023-03-27T01:36:56.448Z,15.54
2023-03-27T01:40:07.967Z,15.53
2023-03-27T01:43:17.282Z,15.50
2023-03-27T01:46:31.771Z,15.46
2023-03-27T01:49:41.516Z,15.46
2023-03-27T01:52:49.240Z,15.51
2023-03-27T01:55:58.423Z,15.49
2023-03-27T01:59:09.376Z,15.42
2023-03-27T02:02:17.400Z,15.42
2023-03-27T02:05:50.986Z,15.51
2023-03-27T02:09:00.259Z,15.42
2023-03-27T02:12:12.211Z,15.41
2023-03-27T02:15:27.656Z,15.35
2023-03-27T02:18:35.734Z,15.35
2023-03-27T02:21:37.914Z,15.35
2023-03-27T02:24:43.746Z,15.17
2023-03-27T02:27:48.194Z,15.10
2023-03-27T02:31:33.277Z,15.13
2023-03-27T02:34:38.301Z,15.09
2023-03-27T02:38:15.401Z,15.03
2023-03-27T02:41:31.234Z,14.99
2023-03-27T02:44:57.203Z,14.97
2023-03-27T02:48:06.813Z,15.02
2023-03-27T02:51:31.839Z,15.02
2023-03-27T02:54:51.097Z,15.09
2023-03-27T02:57:59.509Z,15.00
2023-03-27T03:01:15.440Z,15.00
2023-03-27T03:04:46.241Z,14.98
2023-03-27T03:07:49.896Z,14.95
2023-03-27T03:10:52.322Z,15.08
2023-03-27T03:13:55.191Z,15.09
2023-03-27T03:16:57.536Z,15.09
2023-03-27T03:19:59.720Z,15.12
2023-03-27T03:23:02.528Z,15.05
2023-03-27T03:26:06.591Z,15.08
2023-03-27T03:29:19.301Z,15.14
2023-03-27T03:32:36.295Z,15.06
2023-03-27T03:35:43.205Z,15.00
2023-03-27T03:38:58.531Z,15.07
2023-03-27T03:42:00.737Z,15.10
2023-03-27T03:45:02.914Z,15.12
2023-03-27T03:48:05.502Z,15.13
2023-03-27T03:51:07.754Z,15.09
2023-03-27T03:54:10.194Z,15.08
2023-03-27T03:57:12.602Z,15.05
2023-03-27T04:00:16.921Z,15.04
2023-03-27T04:03:19.175Z,14.95
2023-03-27T04:06:21.549Z,15.02
2023-03-27T04:09:24.379Z,15.01
2023-03-27T04:12:41.455Z,14.84
2023-03-27T04:15:51.420Z,15.02
2023-03-27T04:19:07.137Z,15.01
2023-03-27T04:22:13.769Z,14.97
2023-03-27T04:25:17.638Z,14.81
2023-03-27T04:28:21.341Z,14.97
2023-03-27T04:31:30.424Z,14.94
2023-03-27T04:35:04.972Z,15.03
2023-03-27T04:38:21.238Z,15.52
2023-03-27T04:41:29.842Z,15.52
2023-03-27T04:44:32.311Z,15.42
2023-03-27T04:47:40.610Z,15.36
2023-03-27T04:50:44.292Z,15.26
2023-03-27T04:53:49.356Z,15.25
2023-03-27T04:56:51.677Z,15.14
2023-03-27T04:59:53.872Z,15.07
2023-03-27T05:03:19.354Z,15.07
2023-03-27T05:06:36.743Z,15.17
2023-03-27T05:09:44.956Z,15.17
2023-03-27T05:12:48.867Z,15.06
2023-03-27T05:15:59.368Z,15.12
2023-03-27T05:19:07.292Z,14.98
2023-03-27T05:22:15.931Z,14.98
2023-03-27T05:25:29.504Z,14.87
2023-03-27T05:28:32.756Z,14.85
2023-03-27T05:31:37.102Z,14.81
2023-03-27T05:34:58.318Z,14.81
2023-03-27T05:38:01.128Z,14.74
2023-03-27T05:41:17.054Z,14.79
2023-03-27T05:44:23.657Z,14.79
2023-03-27T05:47:27.197Z,14.94
2023-03-27T05:50:32.751Z,14.91
2023-03-27T05:53:40.413Z,14.75
2023-03-27T05:57:06.082Z,14.77
2023-03-27T06:00:14.907Z,14.89
2023-03-27T06:03:19.953Z,14.90
2023-03-27T06:06:37.959Z,14.96
2023-03-27T06:09:45.879Z,14.99
2023-03-27T06:13:28.858Z,14.86
2023-03-27T06:16:36.813Z,14.85
2023-03-27T06:19:39.001Z,14.89
2023-03-27T06:22:46.320Z,14.87
2023-03-27T06:25:49.500Z,14.90
2023-03-27T06:28:51.687Z,14.81
2023-03-27T06:31:58.000Z,14.88
2023-03-27T06:35:08.777Z,14.97
2023-03-27T06:38:31.960Z,15.02
2023-03-27T06:41:36.207Z,15.12
2023-03-27T06:44:52.627Z,15.07
2023-03-27T06:48:23.292Z,15.05
2023-03-27T06:51:28.762Z,15.04
2023-03-27T06:54:31.066Z,15.04
2023-03-27T06:57:33.519Z,15.07
2023-03-27T07:00:39.165Z,14.88
2023-03-27T07:04:04.513Z,14.79
2023-03-27T07:07:27.877Z,14.77
2023-03-27T07:10:30.574Z,14.84
2023-03-27T07:13:33.054Z,14.78
2023-03-27T07:16:38.669Z,14.75
2023-03-27T07:19:42.801Z,14.75
2023-03-27T07:22:48.014Z,14.66
2023-03-27T07:26:17.133Z,14.66
2023-03-27T07:29:42.207Z,14.50
2023-03-27T07:32:51.461Z,14.61
2023-03-27T07:35:54.656Z,14.52
2023-03-27T07:39:15.634Z,14.71
2023-03-27T07:42:17.879Z,14.86
2023-03-27T07:45:31.487Z,14.95
2023-03-27T07:48:35.905Z,14.88
2023-03-27T07:51:38.718Z,14.83
2023-03-27T07:54:43.095Z,14.81
2023-03-27T07:57:58.467Z,14.66
2023-03-27T08:01:05.045Z,14.74
2023-03-27T08:04:07.619Z,14.70
2023-03-27T08:07:12.146Z,14.63
2023-03-27T08:10:17.253Z,14.57
2023-03-27T08:13:31.807Z,14.45
2023-03-27T08:16:37.904Z,14.61
2023-03-27T08:19:41.411Z,14.44
2023-03-27T08:22:43.856Z,14.43
2023-03-27T08:26:05.626Z,14.49
2023-03-27T08:29:17.680Z,14.56
2023-03-27T08:32:23.058Z,14.56
2023-03-27T08:35:28.075Z,14.47
2023-03-27T08:38:33.361Z,14.55
2023-03-27T08:41:39.006Z,14.58
2023-03-27T08:45:27.679Z,14.58
2023-03-27T08:48:48.821Z,14.61
2023-03-27T08:51:59.157Z,14.64
2023-03-27T08:55:07.942Z,14.67
2023-03-27T08:58:20.765Z,14.83
2023-03-27T09:01:58.168Z,14.76
2023-03-27T09:05:06.192Z,14.76
2023-03-27T09:08:39.200Z,14.65
2023-03-27T09:12:09.196Z,14.61
2023-03-27T09:15:17.326Z,14.70
2023-03-27T09:18:38.296Z,14.66
2023-03-27T09:21:51.069Z,14.71
2023-03-27T09:25:38.093Z,14.67
2023-03-27T09:29:20.609Z,14.84
2023-03-27T09:32:33.611Z,14.80
2023-03-27T09:35:39.790Z,14.75
2023-03-27T09:38:46.817Z,14.84
2023-03-27T09:42:13.249Z,14.88
2023-03-27T09:45:16.636Z,14.77
2023-03-27T09:48:46.996Z,14.55
2023-03-27T09:52:00.182Z,14.55
2023-03-27T09:55:30.627Z,14.65
2023-03-27T09:58:41.087Z,14.48
2023-03-27T10:01:48.007Z,14.31
2023-03-27T10:05:12.306Z,14.28
2023-03-27T10:08:26.060Z,14.37
2023-03-27T10:11:50.845Z,14.39
2023-03-27T10:15:01.715Z,14.25
2023-03-27T10:18:32.034Z,14.18
2023-03-27T10:21:51.187Z,14.26
2023-03-27T10:25:03.581Z,14.36
2023-03-27T10:28:30.021Z,14.48
2023-03-27T10:31:56.646Z,14.57
2023-03-27T10:35:34.047Z,14.45
2023-03-27T10:38:56.532Z,14.35
2023-03-27T10:42:10.626Z,14.26
2023-03-27T10:45:20.792Z,14.44
2023-03-27T10:49:09.615Z,14.25
2023-03-27T10:52:24.385Z,14.23
2023-03-27T10:56:08.985Z,14.23
2023-03-27T10:59:25.638Z,14.34
2023-03-27T11:02:48.665Z,14.39
2023-03-27T11:05:54.582Z,14.39
2023-03-27T11:09:18.237Z,14.34
2023-03-27T11:12:33.280Z,14.48
2023-03-27T11:15:42.203Z,14.37
2023-03-27T11:19:10.753Z,14.49
2023-03-27T11:22:43.459Z,14.43
2023-03-27T11:25:52.104Z,14.39
2023-03-27T11:29:03.084Z,14.53
2023-03-27T11:32:40.984Z,14.42
2023-03-27T11:35:54.618Z,14.36
2023-03-27T11:39:37.690Z,14.38
2023-03-27T11:42:43.491Z,14.40
2023-03-27T11:46:19.924Z,14.23
2023-03-27T11:50:00.412Z,14.22
2023-03-27T11:53:14.148Z,14.20
2023-03-27T11:57:02.933Z,14.07
2023-03-27T12:00:48.519Z,14.16
2023-03-27T12:04:09.220Z,14.15
2023-03-27T12:07:53.076Z,14.16
2023-03-27T12:10:57.496Z,14.23
2023-03-27T12:14:40.081Z,14.35
2023-03-27T12:18:04.913Z,14.40
2023-03-27T12:21:16.484Z,14.44
2023-03-27T12:24:34.084Z,14.38
2023-03-27T12:28:22.585Z,14.43
2023-03-27T12:32:10.695Z,14.35
2023-03-27T12:35:21.479Z,14.31
2023-03-27T12:38:32.245Z,14.44
2023-03-27T12:41:38.108Z,14.48
2023-03-27T12:45:14.271Z,14.46
2023-03-27T12:48:19.844Z,14.55
2023-03-27T12:51:47.423Z,14.62
2023-03-27T12:55:14.024Z,14.62
2023-03-27T12:58:35.184Z,14.67
2023-03-27T13:01:55.903Z,14.71
2023-03-27T13:05:26.883Z,14.66
2023-03-27T13:08:42.110Z,14.78
2023-03-27T13:12:21.414Z,14.74
2023-03-27T13:15:38.092Z,14.57
2023-03-27T13:19:12.615Z,14.71
2023-03-27T13:22:37.077Z,14.76
2023-03-27T13:26:24.880Z,14.62
2023-03-27T13:29:34.088Z,14.70
2023-03-27T13:33:08.562Z,14.69
2023-03-27T13:36:14.545Z,14.49
2023-03-27T13:39:24.881Z,14.41
2023-03-27T13:42:50.999Z,14.49
2023-03-27T13:45:57.668Z,14.32
2023-03-27T13:49:15.655Z,14.30
2023-03-27T13:52:54.343Z,14.31
2023-03-27T13:56:33.794Z,14.39
2023-03-27T14:00:26.674Z,14.28
2023-03-27T14:03:57.723Z,14.19
2023-03-27T14:07:20.065Z,13.99
2023-03-27T14:11:08.211Z,14.13
2023-03-27T14:14:23.713Z,14.14
2023-03-27T14:18:00.394Z,14.27
2023-03-27T14:21:06.627Z,14.15
2023-03-27T14:24:30.474Z,14.21
2023-03-27T14:27:45.592Z,14.04
2023-03-27T14:31:02.210Z,13.93
2023-03-27T14:34:33.316Z,14.01
2023-03-27T14:38:08.955Z,13.94
2023-03-27T14:41:24.134Z,13.85
2023-03-27T14:44:32.074Z,13.85
2023-03-27T14:47:37.633Z,13.82
2023-03-27T14:50:40.696Z,13.75
2023-03-27T14:53:47.085Z,13.84
2023-03-27T14:57:11.010Z,13.73
2023-03-27T15:00:23.477Z,13.71
2023-03-27T15:03:30.153Z,13.64
2023-03-27T15:06:37.609Z,13.63
2023-03-27T15:09:42.802Z,13.64
2023-03-27T15:13:23.878Z,13.51
2023-03-27T15:16:30.264Z,13.61
2023-03-27T15:19:45.203Z,13.47
2023-03-27T15:22:52.024Z,13.65
2023-03-27T15:26:06.269Z,13.68
2023-03-27T15:29:27.281Z,13.67
2023-03-27T15:32:42.422Z,13.48
2023-03-27T15:35:47.196Z,13.58
2023-03-27T15:38:51.007Z,13.56
2023-03-27T15:41:56.520Z,13.43
2023-03-27T15:45:03.204Z,13.37
2023-03-27T15:48:21.793Z,13.40
2023-03-27T15:51:29.745Z,13.32
2023-03-27T15:54:36.132Z,13.33
2023-03-27T15:57:39.327Z,13.10
2023-03-27T16:00:49.576Z,13.15
2023-03-27T16:03:52.529Z,13.17
2023-03-27T16:07:06.154Z,13.12
2023-03-27T16:10:09.815Z,13.03
2023-03-27T16:13:42.082Z,13.08
2023-03-27T16:16:44.299Z,13.07
2023-03-27T16:20:09.742Z,12.76
2023-03-27T16:23:11.901Z,12.71
2023-03-27T16:26:25.318Z,12.80
2023-03-27T16:29:27.507Z,12.92
2023-03-27T16:32:29.963Z,12.91
2023-03-27T16:35:32.653Z,13.00
2023-03-27T16:38:39.477Z,12.77
2023-03-27T16:41:41.651Z,12.68
2023-03-27T16:44:44.771Z,12.69
2023-03-27T16:47:50.116Z,12.71
2023-03-27T16:50:54.631Z,12.62
2023-03-27T16:53:57.324Z,12.77
2023-03-27T16:56:59.646Z,12.45
2023-03-27T17:00:01.942Z,12.39
2023-03-27T17:03:05.211Z,12.41
2023-03-27T17:06:09.477Z,12.49
2023-03-27T17:09:12.602Z,12.64
2023-03-27T17:12:14.797Z,12.64
2023-03-27T17:15:17.175Z,12.59
2023-03-27T17:18:19.361Z,12.53
2023-03-27T17:21:22.678Z,12.53
2023-03-27T17:24:24.928Z,12.48
2023-03-27T17:27:27.200Z,12.43
2023-03-27T17:30:38.599Z,12.50
2023-03-27T17:33:43.407Z,12.34
2023-03-27T17:36:52.555Z,12.42
2023-03-27T17:39:56.609Z,12.37
2023-03-27T17:42:58.872Z,12.29
2023-03-27T17:46:01.566Z,12.47
2023-03-27T17:49:04.230Z,12.35
2023-03-27T17:52:11.949Z,12.39
2023-03-27T17:55:14.283Z,12.32
2023-03-27T17:58:18.910Z,12.26
2023-03-27T18:01:21.984Z,12.15
2023-03-27T18:04:24.704Z,12.15
2023-03-27T18:07:27.967Z,12.22
2023-03-27T18:10:35.360Z,12.06
2023-03-27T18:13:38.424Z,12.09
2023-03-27T18:16:40.901Z,12.10
2023-03-27T18:19:43.129Z,12.06
2023-03-27T18:22:47.101Z,11.82
2023-03-27T18:25:49.251Z,11.79
2023-03-27T18:28:52.487Z,11.83
2023-03-27T18:31:55.124Z,11.67
2023-03-27T18:34:57.333Z,11.62
2023-03-27T18:37:59.563Z,11.43
2023-03-27T18:41:01.750Z,11.53
2023-03-27T18:44:03.996Z,11.48
2023-03-27T18:47:06.147Z,11.45
2023-03-27T18:50:09.470Z,11.47
2023-03-27T18:53:13.702Z,11.57
2023-03-27T18:56:16.829Z,11.52
2023-03-27T18:59:19.372Z,11.60
2023-03-27T19:02:21.778Z,11.39
2023-03-27T19:05:26.416Z,11.54
2023-03-27T19:08:28.702Z,11.31
2023-03-27T19:11:31.299Z,11.28
2023-03-27T19:14:57.037Z,11.22
2023-03-27T19:18:26.104Z,11.24
2023-03-27T19:21:40.279Z,11.21
2023-03-27T19:24:52.027Z,11.23
2023-03-27T19:27:54.323Z,11.27
2023-03-27T19:30:56.899Z,11.28
2023-03-27T19:34:02.125Z,11.32
2023-03-27T19:37:04.548Z,11.12
2023-03-27T19:40:07.947Z,11.25
2023-03-27T19:43:10.412Z,11.13
2023-03-27T19:46:16.394Z,11.35
2023-03-27T19:49:19.371Z,11.23
2023-03-27T19:52:49.457Z,11.13
2023-03-27T19:55:57.462Z,11.31
2023-03-27T19:59:01.636Z,11.11
2023-03-27T20:02:04.297Z,11.18
2023-03-27T20:05:07.252Z,11.18
2023-03-27T20:08:09.502Z,11.23
2023-03-27T20:11:11.789Z,11.16
2023-03-27T20:14:14.236Z,10.97
2023-03-27T20:17:27.976Z,11.01
2023-03-27T20:20:34.317Z,11.14
2023-03-27T20:23:38.475Z,11.05
2023-03-27T20:26:41.898Z,10.94
2023-03-27T20:29:50.307Z,10.94
2023-03-27T20:32:53.004Z,10.92
2023-03-27T20:35:55.485Z,10.97
2023-03-27T20:39:00.178Z,10.98
2023-03-27T20:42:03.843Z,11.09
2023-03-27T20:45:07.144Z,10.93
2023-03-27T20:48:14.902Z,11.09
2023-03-27T20:51:17.690Z,11.10
2023-03-27T20:54:20.441Z,11.04
2023-03-27T20:57:22.832Z,10.96
2023-03-27T21:00:25.536Z,11.04
2023-03-27T21:03:32.103Z,10.97
2023-03-27T21:06:34.427Z,10.81
2023-03-27T21:09:38.257Z,10.90
2023-03-27T21:12:40.897Z,10.88
2023-03-27T21:15:43.149Z,10.96
2023-03-27T21:18:45.416Z,11.07
2023-03-27T21:21:47.870Z,11.12
2023-03-27T21:24:50.454Z,11.19
2023-03-27T21:27:53.450Z,11.09
2023-03-27T21:30:55.714Z,10.96
2023-03-27T21:33:58.149Z,10.95
2023-03-27T21:37:02.640Z,11.07
2023-03-27T21:40:06.090Z,11.29
2023-03-27T21:43:09.114Z,11.07
2023-03-27T21:46:11.750Z,11.04
2023-03-27T21:49:14.180Z,11.01
2023-03-27T21:52:16.685Z,11.02
2023-03-27T21:55:18.843Z,11.08
2023-03-27T21:58:21.068Z,10.98
2023-03-27T22:01:24.069Z,10.98
2023-03-27T22:04:26.826Z,10.84
2023-03-27T22:07:29.013Z,10.87
2023-03-27T22:10:33.614Z,10.92
2023-03-27T22:13:38.850Z,10.91
2023-03-27T22:16:41.395Z,10.83
2023-03-27T22:19:43.623Z,10.88
2023-03-27T22:22:45.985Z,10.97
2023-03-27T22:25:53.132Z,10.84
2023-03-27T22:28:56.945Z,10.82
2023-03-27T22:31:59.134Z,10.82
2023-03-27T22:35:01.308Z,10.73
2023-03-27T22:38:03.433Z,10.71
2023-03-27T22:41:06.832Z,10.50
2023-03-27T22:44:09.081Z,10.63
2023-03-27T22:47:11.346Z,10.58
2023-03-27T22:50:13.553Z,10.42
2023-03-27T22:53:15.913Z,10.62
2023-03-27T22:56:18.181Z,10.56
2023-03-27T22:59:20.817Z,10.60
2023-03-27T23:02:23.297Z,10.67
2023-03-27T23:05:25.594Z,10.47
2023-03-27T23:08:28.634Z,10.58
2023-03-27T23:11:31.045Z,10.61
2023-03-27T23:14:33.328Z,10.70
2023-03-27T23:17:35.537Z,10.78
2023-03-27T23:20:37.722Z,10.83
2023-03-27T23:23:40.606Z,10.65
2023-03-27T23:26:42.826Z,10.74
2023-03-27T23:29:44.979Z,10.61
2023-03-27T23:32:48.422Z,10.48
2023-03-27T23:35:51.830Z,10.50
2023-03-27T23:38:54.435Z,10.57
2023-03-27T23:41:56.683Z,10.55
2023-03-27T23:44:58.920Z,10.39
2023-03-27T23:48:01.331Z,10.50
2023-03-27T23:51:03.772Z,10.48
2023-03-27T23:54:06.034Z,10.61
2023-03-27T23:57:08.250Z,10.72
